Padova Airport LIPU

Flugplatz Daten

Name: Padova Airport

Ident: LIPU

Lat: 45,39580154

Long: 11,84790039

Platzhöhe: 44 ft

IataCode: QPA

City: Padova

Metar

2021/08/05 06:00
LIPU 050600Z VRB03KT CAVOK 20/19 Q1005

Taf

Gewünschte Webcam nicht vorhanden? Dann fügen Sie eine hinzu. Sie wird dann so schnell wie möglich freigeschaltet
Url: Title: